createdAt,value
2019-01-26T00:01:23.687Z,6.97
2019-01-26T00:03:53.621Z,6.33
2019-01-26T00:06:23.453Z,8.87
2019-01-26T00:08:53.374Z,9.30
2019-01-26T00:11:23.248Z,8.50
2019-01-26T00:13:53.749Z,8.13
2019-01-26T00:16:23.658Z,8.30
2019-01-26T00:18:53.445Z,8.13
2019-01-26T00:21:23.410Z,10.03
2019-01-26T00:23:53.370Z,10.60
2019-01-26T00:26:23.271Z,9.77
2019-01-26T00:28:53.421Z,11.30
2019-01-26T00:31:23.416Z,9.80
2019-01-26T00:33:54.505Z,12.63
2019-01-26T00:36:28.531Z,12.63
2019-01-26T00:38:58.452Z,13.37
2019-01-26T00:41:30.031Z,10.90
2019-01-26T00:44:03.212Z,14.03
2019-01-26T00:46:34.047Z,13.85
2019-01-26T00:49:03.958Z,14.03
2019-01-26T00:51:33.760Z,17.27
2019-01-26T00:54:03.602Z,12.87
2019-01-26T00:56:34.841Z,12.00
2019-01-26T00:59:05.203Z,16.93
2019-01-26T01:01:35.157Z,15.93
2019-01-26T01:04:05.319Z,16.10
2019-01-26T01:06:35.236Z,17.57
2019-01-26T01:09:08.708Z,16.00
2019-01-26T01:11:39.055Z,20.03
2019-01-26T01:14:09.180Z,15.63
2019-01-26T01:16:39.309Z,14.10
2019-01-26T01:19:09.168Z,15.83
2019-01-26T01:21:39.169Z,15.37
2019-01-26T01:24:09.097Z,14.98
2019-01-26T01:26:38.977Z,17.20
2019-01-26T01:29:08.817Z,16.33
2019-01-26T01:31:38.562Z,13.93
2019-01-26T01:34:08.472Z,15.93
2019-01-26T01:36:38.689Z,16.03
2019-01-26T01:39:09.475Z,14.37
2019-01-26T01:41:40.504Z,13.67
2019-01-26T01:44:10.429Z,16.10
2019-01-26T01:46:42.984Z,14.17
2019-01-26T01:49:12.509Z,13.07
2019-01-26T01:51:42.399Z,12.30
2019-01-26T01:54:12.255Z,15.10
2019-01-26T01:56:42.044Z,14.90
2019-01-26T01:59:11.993Z,14.65
2019-01-26T02:01:41.833Z,13.57
2019-01-26T02:04:11.726Z,15.10
2019-01-26T02:06:41.904Z,16.33
2019-01-26T02:09:11.810Z,14.83
2019-01-26T02:11:41.966Z,14.83
2019-01-26T02:14:11.795Z,15.60
2019-01-26T02:16:41.993Z,15.28
2019-01-26T02:19:11.776Z,14.53
2019-01-26T02:21:41.605Z,13.87
2019-01-26T02:24:11.429Z,14.50
2019-01-26T02:26:41.457Z,16.27
2019-01-26T02:29:11.347Z,13.70
2019-01-26T02:31:41.225Z,14.67
2019-01-26T02:34:11.121Z,15.97
2019-01-26T02:36:41.462Z,14.30
2019-01-26T02:39:11.376Z,16.32
2019-01-26T02:41:41.160Z,16.97
2019-01-26T02:44:11.967Z,15.93
2019-01-26T02:46:41.928Z,16.47
2019-01-26T02:49:12.732Z,18.00
2019-01-26T02:51:42.543Z,17.07
2019-01-26T02:54:12.385Z,17.90
2019-01-26T02:56:42.376Z,19.07
2019-01-26T02:59:12.238Z,20.12
2019-01-26T03:01:41.963Z,21.33
2019-01-26T03:04:11.818Z,20.17
2019-01-26T03:06:41.965Z,20.90
2019-01-26T03:09:12.032Z,19.33
2019-01-26T03:11:42.079Z,19.63
2019-01-26T03:14:12.055Z,22.87
2019-01-26T03:16:42.221Z,22.35
2019-01-26T03:19:12.180Z,22.07
2019-01-26T03:21:42.917Z,16.57
2019-01-26T03:24:12.837Z,22.63
2019-01-26T03:26:43.708Z,23.90
2019-01-26T03:29:13.579Z,24.03
2019-01-26T03:31:43.593Z,24.03
2019-01-26T03:34:13.588Z,22.17
2019-01-26T03:36:44.575Z,15.17
2019-01-26T03:39:15.733Z,21.93
2019-01-26T03:41:45.729Z,24.63
2019-01-26T03:44:15.621Z,26.73
2019-01-26T03:46:45.565Z,25.73
2019-01-26T03:49:15.476Z,25.63
2019-01-26T03:51:45.402Z,26.10
2019-01-26T03:54:15.391Z,23.77
2019-01-26T03:56:45.350Z,23.33
2019-01-26T03:59:16.840Z,25.07
2019-01-26T04:01:46.845Z,24.03
2019-01-26T04:04:17.719Z,23.80
2019-01-26T04:06:47.548Z,22.53
2019-01-26T04:09:17.375Z,26.53
2019-01-26T04:11:47.184Z,25.53
2019-01-26T04:14:18.839Z,26.10
2019-01-26T04:16:48.524Z,26.23
2019-01-26T04:19:18.444Z,21.57
2019-01-26T04:21:48.666Z,26.20
2019-01-26T04:24:18.704Z,22.23
2019-01-26T04:26:48.542Z,24.33
2019-01-26T04:29:18.310Z,24.80
2019-01-26T04:31:48.383Z,24.10
2019-01-26T04:34:18.183Z,24.83
2019-01-26T04:36:48.911Z,27.33
2019-01-26T04:39:18.958Z,26.30
2019-01-26T04:41:49.231Z,26.93
2019-01-26T04:44:19.392Z,30.80
2019-01-26T04:46:49.331Z,28.53
2019-01-26T04:49:19.131Z,23.60
2019-01-26T04:51:49.204Z,25.63
2019-01-26T04:54:19.126Z,27.80
2019-01-26T04:56:49.282Z,28.40
2019-01-26T04:59:19.156Z,27.95
2019-01-26T05:01:49.002Z,27.07
2019-01-26T05:04:18.728Z,26.63
2019-01-26T05:06:48.644Z,22.37
2019-01-26T05:09:19.125Z,31.07
2019-01-26T05:11:48.960Z,26.70
2019-01-26T05:14:19.825Z,30.23
2019-01-26T05:16:49.796Z,28.03
2019-01-26T05:19:19.622Z,28.30
2019-01-26T05:21:49.315Z,29.35
2019-01-26T05:24:19.234Z,25.87
2019-01-26T05:26:49.178Z,30.33
2019-01-26T05:29:18.920Z,26.37
2019-01-26T05:31:48.785Z,26.95
2019-01-26T05:34:18.575Z,26.40
2019-01-26T05:36:48.713Z,21.30
2019-01-26T05:39:20.053Z,28.80
2019-01-26T05:41:49.894Z,28.85
2019-01-26T05:44:19.652Z,27.37
2019-01-26T05:46:49.540Z,29.17
2019-01-26T05:49:22.055Z,29.00
2019-01-26T05:51:51.833Z,26.60
2019-01-26T05:54:21.699Z,22.10
2019-01-26T05:56:52.780Z,27.37
2019-01-26T05:59:23.445Z,24.67
2019-01-26T06:01:53.331Z,24.37
2019-01-26T06:04:23.510Z,23.80
2019-01-26T06:06:53.501Z,21.97
2019-01-26T06:09:23.973Z,27.20
2019-01-26T06:11:53.822Z,26.17
2019-01-26T06:14:23.831Z,22.40
2019-01-26T06:16:53.928Z,26.23
2019-01-26T06:19:24.510Z,27.13
2019-01-26T06:21:54.363Z,26.53
2019-01-26T06:24:24.923Z,28.60
2019-01-26T06:26:54.919Z,27.30
2019-01-26T06:29:25.196Z,19.48
2019-01-26T06:31:55.172Z,23.05
2019-01-26T06:34:26.290Z,25.33
2019-01-26T06:36:57.327Z,24.20
2019-01-26T06:39:27.590Z,24.83
2019-01-26T06:41:58.799Z,29.27
2019-01-26T06:44:29.038Z,28.60
2019-01-26T06:46:59.160Z,27.03
2019-01-26T06:49:29.103Z,24.70
2019-01-26T06:51:59.106Z,27.00
2019-01-26T06:54:29.051Z,21.53
2019-01-26T06:56:59.309Z,19.37
2019-01-26T06:59:29.273Z,20.90
2019-01-26T07:02:00.356Z,33.20
2019-01-26T07:04:58.514Z,27.37
2019-01-26T07:07:28.579Z,26.63
2019-01-26T07:09:58.311Z,23.53
2019-01-26T07:12:30.225Z,28.60
2019-01-26T07:15:00.366Z,24.13
2019-01-26T07:17:31.799Z,28.30
2019-01-26T07:20:01.689Z,25.47
2019-01-26T07:22:31.573Z,28.57
2019-01-26T07:25:01.480Z,26.57
2019-01-26T07:27:31.217Z,27.75
2019-01-26T07:30:01.084Z,24.37
2019-01-26T07:32:30.995Z,25.93
2019-01-26T07:35:00.713Z,24.97
2019-01-26T07:37:30.554Z,24.63
2019-01-26T07:40:00.267Z,25.30
2019-01-26T07:42:30.119Z,26.83
2019-01-26T07:45:00.251Z,24.67
2019-01-26T07:47:30.727Z,27.30
2019-01-26T07:50:01.543Z,28.87
2019-01-26T07:52:31.465Z,25.03
2019-01-26T07:55:01.498Z,25.03
2019-01-26T07:57:31.311Z,20.17
2019-01-26T08:00:01.462Z,28.70
2019-01-26T08:02:31.370Z,27.97
2019-01-26T08:05:01.838Z,28.92
2019-01-26T08:07:32.173Z,22.52
2019-01-26T08:10:01.956Z,21.50
2019-01-26T08:12:32.179Z,26.40
2019-01-26T08:15:01.950Z,26.80
2019-01-26T08:17:32.032Z,20.67
2019-01-26T08:20:02.031Z,23.03
2019-01-26T08:22:33.171Z,24.87
2019-01-26T08:25:03.084Z,19.03
2019-01-26T08:27:32.902Z,23.70
2019-01-26T08:30:02.708Z,20.63
2019-01-26T08:32:32.688Z,23.73
2019-01-26T08:35:02.531Z,26.13
2019-01-26T08:37:32.408Z,25.53
2019-01-26T08:40:03.450Z,22.93
2019-01-26T08:42:34.133Z,19.80
2019-01-26T08:45:05.186Z,21.13
2019-01-26T08:47:35.887Z,21.80
2019-01-26T08:50:14.701Z,18.43
2019-01-26T08:52:45.653Z,17.20
2019-01-26T08:55:18.192Z,15.50
2019-01-26T08:57:49.712Z,15.60
2019-01-26T09:00:24.488Z,15.60
2019-01-26T09:03:14.543Z,13.02
2019-01-26T09:05:55.077Z,13.33
2019-01-26T09:08:25.187Z,11.03
2019-01-26T09:10:55.202Z,12.53
2019-01-26T09:13:25.228Z,12.50
2019-01-26T09:15:55.173Z,9.97
2019-01-26T09:18:24.919Z,12.30
2019-01-26T09:20:55.195Z,12.63
2019-01-26T09:23:25.174Z,10.93
2019-01-26T09:25:55.149Z,11.03
2019-01-26T09:28:25.075Z,11.27
2019-01-26T09:30:55.082Z,13.07
2019-01-26T09:33:25.606Z,11.90
2019-01-26T09:35:55.647Z,12.67
2019-01-26T09:38:25.658Z,14.30
2019-01-26T09:40:55.765Z,13.83
2019-01-26T09:43:25.668Z,13.48
2019-01-26T09:45:55.389Z,15.67
2019-01-26T09:48:25.252Z,13.07
2019-01-26T09:50:55.187Z,17.85
2019-01-26T09:53:25.787Z,17.97
2019-01-26T09:56:01.656Z,19.30
2019-01-26T09:58:32.656Z,17.73
2019-01-26T10:01:05.476Z,18.42
2019-01-26T10:03:35.837Z,13.10
2019-01-26T10:06:06.092Z,15.72
2019-01-26T10:08:39.264Z,18.03
2019-01-26T10:11:10.996Z,12.40
2019-01-26T10:13:41.283Z,17.40
2019-01-26T10:16:15.227Z,16.17
2019-01-26T10:18:45.078Z,16.33
2019-01-26T10:21:14.889Z,16.43
2019-01-26T10:23:44.817Z,16.63
2019-01-26T10:26:14.702Z,12.78
2019-01-26T10:28:44.691Z,13.20
2019-01-26T10:31:14.876Z,16.30
2019-01-26T10:33:45.752Z,15.07
2019-01-26T10:36:23.620Z,16.43
2019-01-26T10:38:55.792Z,13.53
2019-01-26T10:41:35.140Z,12.13
2019-01-26T10:44:05.225Z,16.70
2019-01-26T10:46:35.140Z,15.03
2019-01-26T10:49:05.121Z,14.00
2019-01-26T10:51:35.047Z,17.13
2019-01-26T10:54:05.341Z,16.57
2019-01-26T10:56:35.292Z,12.03
2019-01-26T10:59:05.772Z,16.90
2019-01-26T11:01:35.754Z,14.37
2019-01-26T11:04:05.779Z,17.27
2019-01-26T11:06:35.827Z,16.30
2019-01-26T11:09:09.390Z,18.03
2019-01-26T11:11:39.245Z,17.20
2019-01-26T11:14:09.197Z,16.57
2019-01-26T11:16:39.061Z,13.77
2019-01-26T11:19:09.042Z,16.32
2019-01-26T11:21:39.127Z,15.37
2019-01-26T11:24:12.802Z,14.07
2019-01-26T11:26:48.933Z,14.17
2019-01-26T11:29:14.455Z,11.33
2019-01-26T11:31:44.729Z,15.33
2019-01-26T11:34:14.657Z,15.90
2019-01-26T11:36:44.551Z,15.50
2019-01-26T11:39:14.360Z,14.00
2019-01-26T11:41:45.334Z,8.57
2019-01-26T11:44:15.370Z,16.73
2019-01-26T11:46:52.157Z,16.90
2019-01-26T11:49:24.209Z,18.13
2019-01-26T11:52:13.243Z,16.00
2019-01-26T11:55:01.776Z,18.50
2019-01-26T11:57:40.955Z,14.40
2019-01-26T12:00:42.821Z,18.20
2019-01-26T12:03:30.268Z,19.13
2019-01-26T12:06:10.031Z,16.73
2019-01-26T12:08:40.325Z,18.47
2019-01-26T12:11:10.746Z,14.70
2019-01-26T12:13:40.790Z,15.23
2019-01-26T12:16:10.817Z,13.80
2019-01-26T12:18:40.819Z,11.90
2019-01-26T12:21:11.082Z,15.32
2019-01-26T12:23:41.025Z,14.18
2019-01-26T12:26:11.319Z,12.28
2019-01-26T12:28:41.233Z,13.80
2019-01-26T12:31:11.897Z,15.20
2019-01-26T12:33:42.035Z,14.43
2019-01-26T12:36:12.165Z,14.87
2019-01-26T12:38:42.356Z,15.03
2019-01-26T12:41:13.388Z,13.53
2019-01-26T12:43:43.852Z,10.07
2019-01-26T12:46:13.707Z,11.30
2019-01-26T12:48:43.824Z,11.53
2019-01-26T12:51:13.950Z,11.87
2019-01-26T12:53:43.806Z,12.43
2019-01-26T12:56:13.752Z,12.53
2019-01-26T12:58:43.479Z,11.45
2019-01-26T13:01:15.777Z,10.90
2019-01-26T13:03:45.809Z,11.18
2019-01-26T13:06:19.426Z,11.03
2019-01-26T13:08:50.144Z,10.48
2019-01-26T13:11:26.117Z,10.50
2019-01-26T13:13:56.074Z,9.83
2019-01-26T13:16:28.750Z,9.57
2019-01-26T13:18:59.349Z,9.03
2019-01-26T13:21:29.961Z,8.90
2019-01-26T13:24:02.992Z,10.53
2019-01-26T13:26:35.940Z,8.90
2019-01-26T13:29:06.393Z,9.67
2019-01-26T13:31:36.593Z,8.90
2019-01-26T13:34:08.288Z,8.80
2019-01-26T13:36:38.216Z,8.37
2019-01-26T13:39:10.843Z,8.67
2019-01-26T13:41:40.940Z,8.97
2019-01-26T13:44:15.285Z,9.17
2019-01-26T13:46:45.355Z,8.67
2019-01-26T13:49:17.065Z,7.60
2019-01-26T13:51:46.855Z,7.20
2019-01-26T13:54:16.780Z,7.53
2019-01-26T13:56:46.785Z,7.60
2019-01-26T13:59:20.682Z,6.63
2019-01-26T14:01:50.512Z,6.93
2019-01-26T14:04:20.702Z,6.57
2019-01-26T14:06:50.951Z,6.57
2019-01-26T14:09:21.115Z,6.70
2019-01-26T14:11:51.128Z,6.63
2019-01-26T14:14:21.083Z,6.70
2019-01-26T14:16:50.984Z,5.75
2019-01-26T14:19:20.972Z,5.53
2019-01-26T14:21:51.006Z,6.20
2019-01-26T14:24:21.049Z,6.50
2019-01-26T14:26:51.896Z,6.37
2019-01-26T14:29:21.902Z,6.03
2019-01-26T14:31:51.748Z,6.20
2019-01-26T14:34:21.852Z,6.07
2019-01-26T14:36:52.164Z,6.30
2019-01-26T14:39:22.362Z,4.93
2019-01-26T14:41:52.502Z,5.20
2019-01-26T14:44:23.512Z,5.43
2019-01-26T14:46:53.499Z,6.07
2019-01-26T14:49:23.691Z,5.22
2019-01-26T14:51:53.782Z,5.73
2019-01-26T14:54:23.765Z,5.30
2019-01-26T14:56:53.811Z,6.20
2019-01-26T14:59:23.757Z,5.90
2019-01-26T15:01:53.704Z,6.03
2019-01-26T15:04:24.257Z,6.13
2019-01-26T15:06:55.239Z,6.40
2019-01-26T15:09:25.251Z,6.00
2019-01-26T15:11:55.160Z,6.63
2019-01-26T15:14:25.154Z,6.00
2019-01-26T15:16:55.107Z,6.17
2019-01-26T15:19:25.077Z,6.50
2019-01-26T15:21:54.825Z,6.05
2019-01-26T15:24:24.786Z,6.70
2019-01-26T15:26:54.963Z,6.10
2019-01-26T15:29:25.115Z,5.23
2019-01-26T15:31:55.057Z,6.37
2019-01-26T15:34:25.041Z,5.47
2019-01-26T15:36:56.104Z,6.10
2019-01-26T15:39:26.469Z,5.67
2019-01-26T15:41:57.088Z,5.77
2019-01-26T15:44:27.205Z,5.50
2019-01-26T15:46:57.234Z,5.60
2019-01-26T15:49:27.317Z,4.90
2019-01-26T15:51:57.228Z,4.70
2019-01-26T15:54:27.261Z,4.70
2019-01-26T15:56:57.866Z,4.10
2019-01-26T15:59:27.988Z,5.12
2019-01-26T16:01:58.017Z,4.77
2019-01-26T16:04:28.020Z,4.83
2019-01-26T16:06:58.482Z,4.87
2019-01-26T16:09:28.626Z,4.10
2019-01-26T16:12:00.491Z,4.83
2019-01-26T16:14:30.833Z,4.80
2019-01-26T16:17:00.836Z,5.00
2019-01-26T16:19:31.214Z,5.27
2019-01-26T16:22:01.129Z,4.90
2019-01-26T16:24:31.260Z,5.50
2019-01-26T16:27:01.331Z,5.07
2019-01-26T16:29:31.522Z,5.83
2019-01-26T16:32:01.556Z,5.73
2019-01-26T16:34:31.513Z,5.90
2019-01-26T16:37:01.283Z,6.00
2019-01-26T16:39:33.333Z,5.57
2019-01-26T16:42:03.275Z,5.77
2019-01-26T16:44:33.147Z,7.20
2019-01-26T16:47:03.182Z,6.73
2019-01-26T16:49:34.106Z,6.97
2019-01-26T16:52:05.619Z,6.70
2019-01-26T16:54:35.667Z,6.37
2019-01-26T16:57:06.469Z,7.33
2019-01-26T16:59:37.251Z,6.83
2019-01-26T17:02:09.020Z,5.93
2019-01-26T17:04:38.949Z,5.80
2019-01-26T17:07:09.014Z,5.77
2019-01-26T17:09:38.884Z,5.30
2019-01-26T17:12:08.964Z,6.07
2019-01-26T17:14:39.008Z,5.83
2019-01-26T17:17:08.917Z,9.27
2019-01-26T17:19:39.985Z,6.30
2019-01-26T17:22:09.958Z,6.00
2019-01-26T17:24:39.833Z,5.00
2019-01-26T17:27:09.732Z,5.43
2019-01-26T17:29:39.638Z,5.50
2019-01-26T17:32:09.607Z,5.47
2019-01-26T17:34:40.262Z,5.25
2019-01-26T17:37:10.344Z,6.23
2019-01-26T17:39:40.785Z,5.83
2019-01-26T17:42:10.741Z,7.00
2019-01-26T17:44:40.600Z,6.60
2019-01-26T17:47:10.455Z,7.53
2019-01-26T17:49:40.296Z,6.67
2019-01-26T17:52:10.229Z,7.97
2019-01-26T17:54:40.757Z,8.50
2019-01-26T17:57:11.759Z,7.75
2019-01-26T17:59:42.725Z,6.70
2019-01-26T18:02:13.585Z,5.20
2019-01-26T18:04:43.417Z,4.90
2019-01-26T18:07:13.185Z,4.67
2019-01-26T18:09:43.030Z,4.70
2019-01-26T18:12:13.020Z,4.70
2019-01-26T18:14:43.152Z,4.80
2019-01-26T18:17:14.036Z,4.43
2019-01-26T18:19:44.152Z,3.17
2019-01-26T18:22:14.775Z,3.17
2019-01-26T18:24:44.773Z,4.10
2019-01-26T18:27:14.776Z,3.83
2019-01-26T18:29:44.733Z,4.13
2019-01-26T18:32:14.904Z,4.03
2019-01-26T18:34:44.630Z,3.77
2019-01-26T18:37:14.466Z,3.90
2019-01-26T18:39:44.173Z,3.98
2019-01-26T18:42:14.089Z,3.80
2019-01-26T18:44:44.047Z,3.85
2019-01-26T18:47:13.789Z,3.60
2019-01-26T18:49:43.613Z,4.03
2019-01-26T18:52:13.541Z,3.67
2019-01-26T18:54:43.367Z,3.23
2019-01-26T18:57:13.281Z,3.03
2019-01-26T18:59:43.185Z,3.40
2019-01-26T19:02:14.602Z,3.10
2019-01-26T19:04:51.341Z,3.53
2019-01-26T19:07:21.270Z,3.77
2019-01-26T19:09:51.660Z,3.60
2019-01-26T19:12:22.176Z,3.07
2019-01-26T19:14:52.174Z,3.27
2019-01-26T19:17:22.857Z,2.80
2019-01-26T19:19:53.066Z,6.23
2019-01-26T19:22:22.954Z,3.00
2019-01-26T19:24:52.876Z,3.23
2019-01-26T19:27:22.865Z,2.90
2019-01-26T19:29:52.927Z,2.87
2019-01-26T19:32:23.005Z,3.03
2019-01-26T19:34:52.959Z,3.30
2019-01-26T19:37:22.869Z,3.47
2019-01-26T19:39:52.867Z,3.30
2019-01-26T19:42:22.923Z,3.60
2019-01-26T19:44:53.100Z,2.90
2019-01-26T19:47:23.198Z,3.67
2019-01-26T19:49:53.091Z,3.30
2019-01-26T19:52:23.350Z,3.90
2019-01-26T19:54:53.196Z,3.40
2019-01-26T19:57:23.308Z,2.80
2019-01-26T19:59:53.588Z,4.17
2019-01-26T20:02:23.509Z,3.53
2019-01-26T20:04:53.309Z,2.20
2019-01-26T20:07:23.161Z,3.77
2019-01-26T20:09:53.271Z,3.77
2019-01-26T20:12:23.189Z,3.27
2019-01-26T20:14:53.237Z,3.50
2019-01-26T20:17:23.038Z,3.62
2019-01-26T20:19:53.276Z,3.80
2019-01-26T20:22:23.954Z,3.20
2019-01-26T20:24:53.952Z,2.97
2019-01-26T20:27:23.859Z,3.37
2019-01-26T20:29:53.667Z,2.87
2019-01-26T20:32:23.635Z,3.27
2019-01-26T20:34:53.512Z,2.63
2019-01-26T20:37:23.429Z,3.30
2019-01-26T20:39:53.410Z,3.17
2019-01-26T20:42:23.320Z,2.87
2019-01-26T20:44:53.433Z,3.30
2019-01-26T20:47:23.284Z,2.70
2019-01-26T20:49:53.137Z,2.93
2019-01-26T20:52:23.431Z,2.67
2019-01-26T20:54:54.303Z,2.50
2019-01-26T20:57:24.321Z,2.30
2019-01-26T20:59:54.407Z,2.90
2019-01-26T21:02:25.133Z,2.43
2019-01-26T21:04:55.508Z,2.13
2019-01-26T21:07:25.808Z,2.70
2019-01-26T21:09:55.845Z,2.20
2019-01-26T21:12:25.670Z,2.47
2019-01-26T21:14:55.596Z,2.33
2019-01-26T21:17:25.675Z,2.17
2019-01-26T21:19:55.755Z,2.40
2019-01-26T21:22:27.176Z,1.80
2019-01-26T21:24:57.349Z,1.80
2019-01-26T21:27:27.415Z,2.00
2019-01-26T21:29:57.117Z,1.87
2019-01-26T21:32:27.067Z,1.87
2019-01-26T21:34:57.040Z,1.97
2019-01-26T21:37:27.006Z,1.83
2019-01-26T21:39:57.059Z,1.63
2019-01-26T21:42:27.031Z,2.23
2019-01-26T21:44:57.869Z,1.70
2019-01-26T21:47:27.873Z,1.70
2019-01-26T21:49:57.656Z,1.42
2019-01-26T21:52:27.515Z,1.60
2019-01-26T21:54:57.383Z,1.70
2019-01-26T21:57:27.393Z,1.50
2019-01-26T21:59:58.583Z,1.70
2019-01-26T22:02:28.652Z,1.43
2019-01-26T22:04:58.620Z,1.40
2019-01-26T22:07:28.855Z,1.23
2019-01-26T22:09:59.449Z,1.17
2019-01-26T22:12:30.362Z,1.30
2019-01-26T22:15:00.776Z,1.33
2019-01-26T22:17:30.599Z,1.30
2019-01-26T22:20:00.423Z,1.20
2019-01-26T22:22:37.245Z,1.40
2019-01-26T22:25:08.872Z,1.07
2019-01-26T22:27:38.962Z,1.13
2019-01-26T22:30:15.701Z,0.90
2019-01-26T22:32:46.029Z,0.93
2019-01-26T22:35:16.010Z,1.37
2019-01-26T22:37:46.572Z,1.00
2019-01-26T22:40:19.864Z,0.80
2019-01-26T22:42:49.671Z,1.10
2019-01-26T22:45:19.724Z,0.83
2019-01-26T22:47:49.756Z,1.00
2019-01-26T22:50:20.604Z,0.90
2019-01-26T22:52:50.503Z,1.10
2019-01-26T22:55:20.856Z,1.00
2019-01-26T22:57:51.369Z,0.90
2019-01-26T23:00:59.248Z,1.07
2019-01-26T23:03:57.405Z,1.13
2019-01-26T23:07:11.476Z,1.10
2019-01-26T23:10:16.850Z,1.00
2019-01-26T23:13:11.012Z,0.90
2019-01-26T23:16:37.451Z,0.83
2019-01-26T23:19:38.416Z,1.05
2019-01-26T23:22:43.522Z,0.82
2019-01-26T23:25:41.363Z,0.80
2019-01-26T23:28:20.410Z,1.20
2019-01-26T23:31:20.945Z,0.90
2019-01-26T23:33:54.384Z,1.13
2019-01-26T23:36:25.395Z,1.00
2019-01-26T23:39:01.994Z,0.90
2019-01-26T23:41:27.679Z,0.70
2019-01-26T23:43:57.678Z,0.90
2019-01-26T23:46:29.188Z,0.70
2019-01-26T23:48:59.111Z,1.10
2019-01-26T23:51:29.126Z,0.50
2019-01-26T23:53:59.045Z,0.83
2019-01-26T23:56:29.054Z,0.60
2019-01-26T23:58:58.977Z,0.90
